createdAt,value
2023-07-11T00:01:17.392Z,16.28
2023-07-11T00:03:47.166Z,16.32
2023-07-11T00:06:20.123Z,16.32
2023-07-11T00:08:47.580Z,16.25
2023-07-11T00:11:17.768Z,16.23
2023-07-11T00:13:45.291Z,16.23
2023-07-11T00:16:14.668Z,16.19
2023-07-11T00:18:42.009Z,16.19
2023-07-11T00:21:09.223Z,16.25
2023-07-11T00:23:36.778Z,16.15
2023-07-11T00:26:05.338Z,16.09
2023-07-11T00:28:32.788Z,16.02
2023-07-11T00:31:00.572Z,16.10
2023-07-11T00:33:30.884Z,16.04
2023-07-11T00:35:58.280Z,15.96
2023-07-11T00:38:25.389Z,15.97
2023-07-11T00:40:53.180Z,15.96
2023-07-11T00:43:21.569Z,15.93
2023-07-11T00:46:14.069Z,15.99
2023-07-11T00:48:59.327Z,15.98
2023-07-11T00:51:34.942Z,15.88
2023-07-11T00:54:04.957Z,15.88
2023-07-11T00:56:36.792Z,15.97
2023-07-11T00:59:04.492Z,15.93
2023-07-11T01:01:32.311Z,15.99
2023-07-11T01:03:59.631Z,15.90
2023-07-11T01:06:29.696Z,15.90
2023-07-11T01:08:59.387Z,15.95
2023-07-11T01:11:29.259Z,15.81
2023-07-11T01:13:57.393Z,15.82
2023-07-11T01:16:24.758Z,15.83
2023-07-11T01:18:52.326Z,15.80
2023-07-11T01:21:20.971Z,15.85
2023-07-11T01:23:48.777Z,15.85
2023-07-11T01:26:16.668Z,15.79
2023-07-11T01:28:44.136Z,15.76
2023-07-11T01:31:11.464Z,15.78
2023-07-11T01:33:38.625Z,15.73
2023-07-11T01:36:06.171Z,15.74
2023-07-11T01:38:33.276Z,15.82
2023-07-11T01:41:00.683Z,15.73
2023-07-11T01:43:28.194Z,15.64
2023-07-11T01:45:55.462Z,15.69
2023-07-11T01:48:22.910Z,15.70
2023-07-11T01:50:49.803Z,15.69
2023-07-11T01:53:17.461Z,15.73
2023-07-11T01:55:45.446Z,15.74
2023-07-11T01:58:12.470Z,15.71
2023-07-11T02:00:40.498Z,15.71
2023-07-11T02:03:07.875Z,15.71
2023-07-11T02:05:35.328Z,15.73
2023-07-11T02:08:02.344Z,15.67
2023-07-11T02:10:32.364Z,15.65
2023-07-11T02:12:59.551Z,15.59
2023-07-11T02:15:26.946Z,15.67
2023-07-11T02:17:53.976Z,15.74
2023-07-11T02:20:21.383Z,15.67
2023-07-11T02:22:48.304Z,15.66
2023-07-11T02:25:15.381Z,15.57
2023-07-11T02:27:42.178Z,15.60
2023-07-11T02:30:09.779Z,15.63
2023-07-11T02:32:36.866Z,15.56
2023-07-11T02:35:03.949Z,15.62
2023-07-11T02:37:30.724Z,15.57
2023-07-11T02:39:57.849Z,15.55
2023-07-11T02:42:24.756Z,15.51
2023-07-11T02:44:52.192Z,15.52
2023-07-11T02:47:19.303Z,15.54
2023-07-11T02:49:46.463Z,15.48
2023-07-11T02:52:16.369Z,15.52
2023-07-11T02:54:43.241Z,15.52
2023-07-11T02:57:11.409Z,15.50
2023-07-11T02:59:38.870Z,15.49
2023-07-11T03:02:05.914Z,15.54
2023-07-11T03:04:35.190Z,15.55
2023-07-11T03:07:02.213Z,15.49
2023-07-11T03:09:29.578Z,15.49
2023-07-11T03:11:56.791Z,15.51
2023-07-11T03:14:24.055Z,15.57
2023-07-11T03:16:52.703Z,15.56
2023-07-11T03:19:21.510Z,15.62
2023-07-11T03:21:51.555Z,15.57
2023-07-11T03:24:18.523Z,15.64
2023-07-11T03:26:47.146Z,15.61
2023-07-11T03:29:15.422Z,15.64
2023-07-11T03:31:43.755Z,15.79
2023-07-11T03:34:10.535Z,15.75
2023-07-11T03:36:37.686Z,15.87
2023-07-11T03:39:05.125Z,15.91
2023-07-11T03:41:31.832Z,15.93
2023-07-11T03:43:58.647Z,15.98
2023-07-11T03:46:25.870Z,16.07
2023-07-11T03:48:55.558Z,16.06
2023-07-11T03:51:22.650Z,16.21
2023-07-11T03:53:49.563Z,16.28
2023-07-11T03:56:16.581Z,16.30
2023-07-11T03:58:43.823Z,16.44
2023-07-11T04:01:10.761Z,16.51
2023-07-11T04:03:37.623Z,16.60
2023-07-11T04:06:04.566Z,16.83
2023-07-11T04:08:31.821Z,17.02
2023-07-11T04:11:01.894Z,17.20
2023-07-11T04:13:29.295Z,17.36
2023-07-11T04:15:56.682Z,17.51
2023-07-11T04:18:25.964Z,17.74
2023-07-11T04:20:52.829Z,18.05
2023-07-11T04:23:19.676Z,18.38
2023-07-11T04:25:46.732Z,18.74
2023-07-11T04:28:13.763Z,18.96
2023-07-11T04:30:40.668Z,19.15
2023-07-11T04:33:07.901Z,19.20
2023-07-11T04:35:35.091Z,19.33
2023-07-11T04:38:01.952Z,19.41
2023-07-11T04:40:29.050Z,19.52
2023-07-11T04:43:00.007Z,19.56
2023-07-11T04:45:27.326Z,19.67
2023-07-11T04:47:54.623Z,19.71
2023-07-11T04:50:21.638Z,19.72
2023-07-11T04:52:48.604Z,19.85
2023-07-11T04:55:15.484Z,19.98
2023-07-11T04:57:42.453Z,20.24
2023-07-11T05:00:10.153Z,20.41
2023-07-11T05:02:37.244Z,20.54
2023-07-11T05:05:04.418Z,20.60
2023-07-11T05:07:31.532Z,20.59
2023-07-11T05:09:59.629Z,20.63
2023-07-11T05:12:27.658Z,20.70
2023-07-11T05:14:55.081Z,20.88
2023-07-11T05:17:21.941Z,21.23
2023-07-11T05:19:49.521Z,21.65
2023-07-11T05:22:16.500Z,22.03
2023-07-11T05:24:43.271Z,22.29
2023-07-11T05:27:10.023Z,22.46
2023-07-11T05:29:37.626Z,22.62
2023-07-11T05:32:04.669Z,22.78
2023-07-11T05:34:34.220Z,22.74
2023-07-11T05:37:02.809Z,22.70
2023-07-11T05:39:29.800Z,22.73
2023-07-11T05:41:58.612Z,22.85
2023-07-11T05:44:26.561Z,23.10
2023-07-11T05:46:53.843Z,23.59
2023-07-11T05:49:20.836Z,23.98
2023-07-11T05:51:47.990Z,24.36
2023-07-11T05:54:15.185Z,24.60
2023-07-11T05:56:43.164Z,24.59
2023-07-11T05:59:10.026Z,24.58
2023-07-11T06:01:37.322Z,24.56
2023-07-11T06:04:12.222Z,24.46
2023-07-11T06:06:46.902Z,24.48
2023-07-11T06:09:19.580Z,24.68
2023-07-11T06:11:48.871Z,24.99
2023-07-11T06:14:19.760Z,25.41
2023-07-11T06:16:50.565Z,25.77
2023-07-11T06:19:18.293Z,26.13
2023-07-11T06:21:48.402Z,26.48
2023-07-11T06:24:15.180Z,26.82
2023-07-11T06:26:42.316Z,27.17
2023-07-11T06:29:09.262Z,27.55
2023-07-11T06:31:36.363Z,27.71
2023-07-11T06:34:03.617Z,27.99
2023-07-11T06:36:30.437Z,28.40
2023-07-11T06:38:57.426Z,28.73
2023-07-11T06:41:24.405Z,29.03
2023-07-11T06:43:51.260Z,29.33
2023-07-11T06:46:18.334Z,29.43
2023-07-11T06:48:45.428Z,29.63
2023-07-11T06:51:12.457Z,29.83
2023-07-11T06:53:39.350Z,30.10
2023-07-11T06:56:06.629Z,30.41
2023-07-11T06:58:33.669Z,30.71
2023-07-11T07:01:13.420Z,30.99
2023-07-11T07:03:46.335Z,31.24
2023-07-11T07:06:14.820Z,31.51
2023-07-11T07:08:42.583Z,31.72
2023-07-11T07:11:10.022Z,31.83
2023-07-11T07:13:37.316Z,32.13
2023-07-11T07:16:06.188Z,32.25
2023-07-11T07:18:36.829Z,32.33
2023-07-11T07:21:04.877Z,32.27
2023-07-11T07:23:35.131Z,32.48
2023-07-11T07:26:04.543Z,32.50
2023-07-11T07:28:34.050Z,32.51
2023-07-11T07:31:04.112Z,32.36
2023-07-11T07:33:31.167Z,32.50
2023-07-11T07:36:06.516Z,32.47
2023-07-11T07:38:34.141Z,32.68
2023-07-11T07:41:04.488Z,32.83
2023-07-11T07:43:32.576Z,32.83
2023-07-11T07:46:01.991Z,32.88
2023-07-11T07:48:29.142Z,33.05
2023-07-11T07:51:07.478Z,33.27
2023-07-11T07:53:38.351Z,33.45
2023-07-11T07:56:24.695Z,33.42
2023-07-11T07:58:52.102Z,33.25
2023-07-11T08:01:21.662Z,33.37
2023-07-11T08:03:48.875Z,33.41
2023-07-11T08:06:18.723Z,33.54
2023-07-11T08:08:47.621Z,33.48
2023-07-11T08:11:15.832Z,33.57
2023-07-11T08:16:28.830Z,33.64
2023-07-11T08:18:58.519Z,33.50
2023-07-11T08:21:28.700Z,33.53
2023-07-11T08:23:55.734Z,33.52
2023-07-11T08:26:23.671Z,33.68
2023-07-11T08:28:52.106Z,33.55
2023-07-11T08:31:19.151Z,33.59
2023-07-11T08:33:46.281Z,33.75
2023-07-11T08:36:13.213Z,33.92
2023-07-11T08:38:40.025Z,34.06
2023-07-11T08:41:23.515Z,34.17
2023-07-11T08:43:52.888Z,34.27
2023-07-11T08:46:23.697Z,34.48
2023-07-11T08:48:55.504Z,34.56
2023-07-11T08:51:38.332Z,34.63
2023-07-11T08:54:22.216Z,34.72
2023-07-11T08:57:03.915Z,34.95
2023-07-11T09:00:09.479Z,34.92
2023-07-11T09:02:48.651Z,34.90
2023-07-11T09:05:30.383Z,34.53
2023-07-11T09:07:58.241Z,34.41
2023-07-11T09:10:48.148Z,34.39
2023-07-11T09:13:31.544Z,34.32
2023-07-11T09:16:36.921Z,34.17
2023-07-11T09:19:22.149Z,34.18
2023-07-11T09:22:26.756Z,34.42
2023-07-11T09:24:58.314Z,34.41
2023-07-11T09:27:37.605Z,34.23
2023-07-11T09:30:41.669Z,34.03
2023-07-11T09:33:24.555Z,34.17
2023-07-11T09:35:53.671Z,34.26
2023-07-11T09:38:32.279Z,34.16
2023-07-11T09:40:59.177Z,34.19
2023-07-11T09:43:26.359Z,34.04
2023-07-11T09:45:53.426Z,34.15
2023-07-11T09:48:27.818Z,34.11
2023-07-11T09:51:29.583Z,34.28
2023-07-11T09:53:57.388Z,34.41
2023-07-11T09:56:26.528Z,34.40
2023-07-11T09:59:01.923Z,34.42
2023-07-11T10:01:34.333Z,34.46
2023-07-11T10:04:02.761Z,34.32
2023-07-11T10:09:13.943Z,33.94
2023-07-11T10:11:41.002Z,33.80
2023-07-11T10:14:18.912Z,33.84
2023-07-11T10:16:47.695Z,33.99
2023-07-11T10:19:17.389Z,33.87
2023-07-11T10:21:58.355Z,33.81
2023-07-11T10:24:39.254Z,33.83
2023-07-11T10:27:12.360Z,33.63
2023-07-11T10:29:47.775Z,33.49
2023-07-11T10:32:21.848Z,33.41
2023-07-11T10:35:01.240Z,33.46
2023-07-11T10:37:40.988Z,33.35
2023-07-11T10:40:26.913Z,33.15
2023-07-11T10:42:56.046Z,33.07
2023-07-11T10:45:28.967Z,33.00
2023-07-11T10:48:32.055Z,32.98
2023-07-11T10:51:25.828Z,33.08
2023-07-11T10:54:26.393Z,33.16
2023-07-11T10:57:01.380Z,33.16
2023-07-11T10:59:32.401Z,33.19
2023-07-11T11:02:11.899Z,33.18
2023-07-11T11:04:57.125Z,33.31
2023-07-11T11:07:46.959Z,33.35
2023-07-11T11:10:39.587Z,33.32
2023-07-11T11:13:15.876Z,33.42
2023-07-11T11:16:13.703Z,33.72
2023-07-11T11:18:55.546Z,33.84
2023-07-11T11:21:47.547Z,34.00
2023-07-11T11:24:58.495Z,33.96
2023-07-11T11:27:33.141Z,33.80
2023-07-11T11:30:03.156Z,33.81
2023-07-11T11:32:35.575Z,33.93
2023-07-11T11:35:15.440Z,34.06
2023-07-11T11:38:35.117Z,34.15
2023-07-11T11:41:10.069Z,34.08
2023-07-11T11:45:43.631Z,33.89
2023-07-11T11:46:30.546Z,33.81
2023-07-11T11:51:35.107Z,33.74
2023-07-11T11:54:06.676Z,33.85
2023-07-11T11:56:39.244Z,34.05
2023-07-11T11:59:08.366Z,34.11
2023-07-11T12:01:40.123Z,33.94
2023-07-11T12:04:28.966Z,34.06
2023-07-11T12:07:30.312Z,34.10
2023-07-11T12:09:57.701Z,34.13
2023-07-11T12:12:37.957Z,34.13
2023-07-11T12:15:13.938Z,34.28
2023-07-11T12:17:40.709Z,34.37
2023-07-11T12:20:08.024Z,34.24
2023-07-11T12:22:38.415Z,34.20
2023-07-11T12:32:29.940Z,34.21
2023-07-11T12:34:57.972Z,34.17
2023-07-11T12:37:28.347Z,34.32
2023-07-11T12:40:13.648Z,34.47
2023-07-11T12:42:53.151Z,34.59
2023-07-11T12:45:25.504Z,34.69
2023-07-11T12:48:24.542Z,34.73
2023-07-11T12:50:54.920Z,34.75
2023-07-11T13:05:13.388Z,34.40
2023-07-11T13:07:42.684Z,34.33
2023-07-11T13:10:25.719Z,34.23
2023-07-11T13:12:52.815Z,34.16
2023-07-11T13:15:22.747Z,34.14
2023-07-11T13:17:55.081Z,34.04
2023-07-11T13:20:26.071Z,33.96
2023-07-11T13:22:53.925Z,34.08
2023-07-11T13:25:34.072Z,34.17
2023-07-11T13:28:04.828Z,34.19
2023-07-11T13:30:37.757Z,34.21
2023-07-11T13:33:23.902Z,34.09
2023-07-11T13:36:07.708Z,34.04
2023-07-11T13:38:44.983Z,33.98
2023-07-11T13:41:28.606Z,33.90
2023-07-11T13:44:14.256Z,33.85
2023-07-11T13:46:41.161Z,33.85
2023-07-11T13:49:15.230Z,33.74
2023-07-11T13:51:42.546Z,33.71
2023-07-11T13:54:14.145Z,33.70
2023-07-11T13:56:40.989Z,33.64
2023-07-11T13:59:07.870Z,33.56
2023-07-11T14:01:41.197Z,33.55
2023-07-11T14:04:20.108Z,33.55
2023-07-11T14:06:47.723Z,33.44
2023-07-11T14:09:15.260Z,33.51
2023-07-11T14:11:50.884Z,33.55
2023-07-11T14:14:33.625Z,33.54
2023-07-11T14:17:08.842Z,33.62
2023-07-11T14:19:37.779Z,33.62
2023-07-11T14:22:14.445Z,33.56
2023-07-11T14:24:57.734Z,33.56
2023-07-11T14:27:24.575Z,33.55
2023-07-11T14:29:51.969Z,33.49
2023-07-11T14:32:20.866Z,33.41
2023-07-11T14:34:48.562Z,33.41
2023-07-11T14:37:22.156Z,33.22
2023-07-11T14:39:49.842Z,33.23
2023-07-11T14:42:25.021Z,33.25
2023-07-11T14:44:52.024Z,33.20
2023-07-11T14:47:19.134Z,33.18
2023-07-11T14:49:46.011Z,33.18
2023-07-11T14:52:32.761Z,33.32
2023-07-11T15:00:00.493Z,33.15
2023-07-11T15:02:34.210Z,33.07
2023-07-11T15:10:08.207Z,33.02
2023-07-11T15:17:47.062Z,33.13
2023-07-11T15:20:17.326Z,33.16
2023-07-11T15:22:46.140Z,33.11
2023-07-11T15:25:20.712Z,33.09
2023-07-11T15:27:48.421Z,33.06
2023-07-11T15:30:26.405Z,33.05
2023-07-11T15:35:48.876Z,32.97
2023-07-11T15:38:21.124Z,32.89
2023-07-11T15:40:51.429Z,32.82
2023-07-11T15:43:26.617Z,32.73
2023-07-11T15:45:56.076Z,32.67
2023-07-11T15:48:24.294Z,32.59
2023-07-11T15:50:53.665Z,32.45
2023-07-11T15:53:21.563Z,32.36
2023-07-11T15:55:49.322Z,32.26
2023-07-11T15:58:19.299Z,32.21
2023-07-11T16:00:46.879Z,32.15
2023-07-11T16:03:20.077Z,32.02
2023-07-11T16:05:58.257Z,31.85
2023-07-11T16:08:28.748Z,31.68
2023-07-11T16:11:01.384Z,31.54
2023-07-11T16:13:33.690Z,31.30
2023-07-11T16:16:02.704Z,31.09
2023-07-11T16:18:33.289Z,30.94
2023-07-11T16:21:00.613Z,30.79
2023-07-11T16:23:28.348Z,30.68
2023-07-11T16:25:56.361Z,30.43
2023-07-11T16:28:28.004Z,30.35
2023-07-11T16:31:04.653Z,30.23
2023-07-11T16:33:35.698Z,30.09
2023-07-11T16:36:03.095Z,29.94
2023-07-11T16:39:02.186Z,29.77
2023-07-11T16:41:29.894Z,29.63
2023-07-11T16:43:56.775Z,29.52
2023-07-11T16:46:23.701Z,29.38
2023-07-11T16:48:50.682Z,29.22
2023-07-11T16:51:23.729Z,29.08
2023-07-11T16:53:52.114Z,28.96
2023-07-11T16:56:33.762Z,28.80
2023-07-11T16:59:20.031Z,28.63
2023-07-11T17:01:52.700Z,28.45
2023-07-11T17:04:21.401Z,28.30
2023-07-11T17:06:53.302Z,28.18
2023-07-11T17:09:25.278Z,28.04
2023-07-11T17:11:56.212Z,27.93
2023-07-11T17:14:25.491Z,27.78
2023-07-11T17:17:03.361Z,27.62
2023-07-11T17:19:38.165Z,27.49
2023-07-11T17:22:06.276Z,27.32
2023-07-11T17:24:41.000Z,27.17
2023-07-11T17:27:24.411Z,26.99
2023-07-11T17:29:55.226Z,26.85
2023-07-11T17:32:30.663Z,26.71
2023-07-11T17:34:59.569Z,26.56
2023-07-11T17:37:34.955Z,26.43
2023-07-11T17:40:03.901Z,26.30
2023-07-11T17:42:30.895Z,26.19
2023-07-11T17:44:59.273Z,26.07
2023-07-11T17:49:59.196Z,25.80
2023-07-11T17:52:28.531Z,25.66
2023-07-11T17:54:56.205Z,25.54
2023-07-11T17:57:43.534Z,25.40
2023-07-11T18:00:17.201Z,25.30
2023-07-11T18:02:57.638Z,25.13
2023-07-11T18:05:26.232Z,25.04
2023-07-11T18:07:53.393Z,24.94
2023-07-11T18:10:32.099Z,24.79
2023-07-11T18:13:10.153Z,24.67
2023-07-11T18:15:44.607Z,24.52
2023-07-11T18:18:38.759Z,24.42
2023-07-11T18:21:05.767Z,24.31
2023-07-11T18:23:34.944Z,24.22
2023-07-11T18:26:23.753Z,24.09
2023-07-11T18:29:18.677Z,24.01
2023-07-11T18:31:47.899Z,23.95
2023-07-11T18:34:19.947Z,23.83
2023-07-11T18:36:48.165Z,23.76
2023-07-11T18:39:16.372Z,23.66
2023-07-11T18:41:43.991Z,23.52
2023-07-11T18:44:11.873Z,23.51
2023-07-11T18:47:36.275Z,23.45
2023-07-11T18:50:23.615Z,23.27
2023-07-11T18:52:50.467Z,23.20
2023-07-11T18:55:19.048Z,23.05
2023-07-11T18:57:47.198Z,22.97
2023-07-11T19:00:29.940Z,22.98
2023-07-11T19:02:57.075Z,22.91
2023-07-11T19:05:24.696Z,22.76
2023-07-11T19:07:55.008Z,22.69
2023-07-11T19:10:34.454Z,22.55
2023-07-11T19:13:01.937Z,22.47
2023-07-11T19:15:33.275Z,22.47
2023-07-11T19:18:22.570Z,22.45
2023-07-11T19:20:50.825Z,22.35
2023-07-11T19:23:20.924Z,22.34
2023-07-11T19:25:50.555Z,22.18
2023-07-11T19:28:21.547Z,22.14
2023-07-11T19:30:58.981Z,22.07
2023-07-11T19:33:29.783Z,22.01
2023-07-11T19:36:11.313Z,21.87
2023-07-11T19:38:39.320Z,21.85
2023-07-11T19:41:07.112Z,21.80
2023-07-11T19:43:34.438Z,21.72
2023-07-11T19:46:05.678Z,21.70
2023-07-11T19:48:33.098Z,21.68
2023-07-11T19:51:02.603Z,21.60
2023-07-11T19:53:33.817Z,21.57
2023-07-11T19:58:33.806Z,21.43
2023-07-11T20:01:02.576Z,21.43
2023-07-11T20:03:35.668Z,21.37
2023-07-11T20:06:03.616Z,21.32
2023-07-11T20:08:35.037Z,21.23
2023-07-11T20:11:04.764Z,21.20
2023-07-11T20:13:37.288Z,21.14
2023-07-11T20:16:16.223Z,21.16
2023-07-11T20:18:44.164Z,21.07
2023-07-11T20:21:19.299Z,21.05
2023-07-11T20:23:49.891Z,20.90
2023-07-11T20:26:27.598Z,20.93
2023-07-11T20:28:58.611Z,20.84
2023-07-11T20:31:27.826Z,20.82
2023-07-11T20:33:55.764Z,20.69
2023-07-11T20:36:29.837Z,20.70
2023-07-11T20:38:58.784Z,20.68
2023-07-11T20:41:26.315Z,20.60
2023-07-11T20:43:53.537Z,20.57
2023-07-11T20:46:23.074Z,20.51
2023-07-11T20:48:51.310Z,20.44
2023-07-11T20:51:20.373Z,20.54
2023-07-11T20:53:48.563Z,20.44
2023-07-11T20:56:22.284Z,20.44
2023-07-11T20:58:57.686Z,20.35
2023-07-11T21:01:25.693Z,20.26
2023-07-11T21:03:53.169Z,20.27
2023-07-11T21:06:20.175Z,20.27
2023-07-11T21:08:47.944Z,20.23
2023-07-11T21:11:15.525Z,20.15
2023-07-11T21:13:43.891Z,20.13
2023-07-11T21:16:18.355Z,20.08
2023-07-11T21:18:45.429Z,20.04
2023-07-11T21:21:14.246Z,20.07
2023-07-11T21:23:41.088Z,20.04
2023-07-11T21:26:17.530Z,20.06
2023-07-11T21:28:47.247Z,20.01
2023-07-11T21:31:17.175Z,19.96
2023-07-11T21:33:46.008Z,19.88
2023-07-11T21:36:18.641Z,19.87
2023-07-11T21:38:56.827Z,19.78
2023-07-11T21:41:24.848Z,19.77
2023-07-11T21:43:51.900Z,19.74
2023-07-11T21:46:20.851Z,19.76
2023-07-11T21:48:50.472Z,19.66
2023-07-11T21:51:18.714Z,19.66
2023-07-11T21:53:47.290Z,19.68
2023-07-11T21:56:22.059Z,19.72
2023-07-11T21:58:54.271Z,19.65
2023-07-11T22:01:24.218Z,19.67
2023-07-11T22:03:51.943Z,19.59
2023-07-11T22:06:28.685Z,19.58
2023-07-11T22:08:56.923Z,19.55
2023-07-11T22:11:24.672Z,19.52
2023-07-11T22:13:51.586Z,19.50
2023-07-11T22:16:24.282Z,19.51
2023-07-11T22:18:52.513Z,19.49
2023-07-11T22:21:22.363Z,19.46
2023-07-11T22:23:50.182Z,19.45
2023-07-11T22:26:29.468Z,19.46
2023-07-11T22:29:00.036Z,19.39
2023-07-11T22:31:27.888Z,19.37
2023-07-11T22:33:59.092Z,19.34
2023-07-11T22:36:26.055Z,19.21
2023-07-11T22:38:59.728Z,19.20
2023-07-11T22:41:27.225Z,19.18
2023-07-11T22:43:54.692Z,19.18
2023-07-11T22:46:25.044Z,19.15
2023-07-11T22:48:52.800Z,19.03
2023-07-11T22:51:20.240Z,19.00
2023-07-11T22:53:51.084Z,18.93
2023-07-11T22:56:29.657Z,18.91
2023-07-11T22:58:59.908Z,18.93
2023-07-11T23:01:27.987Z,18.92
2023-07-11T23:03:58.692Z,18.92
2023-07-11T23:06:28.829Z,18.89
2023-07-11T23:08:57.064Z,18.88
2023-07-11T23:11:25.648Z,18.95
2023-07-11T23:13:58.019Z,18.90
2023-07-11T23:16:31.324Z,18.88
2023-07-11T23:19:05.092Z,18.91
2023-07-11T23:21:33.642Z,18.86
2023-07-11T23:24:00.941Z,18.85
2023-07-11T23:26:33.292Z,18.86
2023-07-11T23:29:00.729Z,18.77
2023-07-11T23:31:27.957Z,18.82
2023-07-11T23:33:55.280Z,18.74
2023-07-11T23:36:25.195Z,18.72
2023-07-11T23:38:54.528Z,18.74
2023-07-11T23:41:25.205Z,18.71
2023-07-11T23:43:55.623Z,18.74
2023-07-11T23:46:34.295Z,18.68
2023-07-11T23:49:01.629Z,18.70
2023-07-11T23:51:30.312Z,18.66
2023-07-11T23:53:58.111Z,18.55
2023-07-11T23:56:31.491Z,18.61
2023-07-11T23:58:59.293Z,18.58
